sensor_id;sensor_type;location;lat;lon;timestamp;P1;durP1;ratioP1;P2;durP2;ratioP2
71353;SDS011;59393;51.652;4.864;2023-02-26T00:02:08;10.50;;;1.40;;
71353;SDS011;59393;51.652;4.864;2023-02-26T00:04:34;8.88;;;1.70;;
71353;SDS011;59393;51.652;4.864;2023-02-26T00:07:00;7.35;;;1.40;;
71353;SDS011;59393;51.652;4.864;2023-02-26T00:09:28;3.45;;;1.00;;
71353;SDS011;59393;51.652;4.864;2023-02-26T00:11:55;7.40;;;1.50;;
71353;SDS011;59393;51.652;4.864;2023-02-26T00:14:21;9.05;;;1.45;;
71353;SDS011;59393;51.652;4.864;2023-02-26T00:16:56;6.10;;;1.35;;
71353;SDS011;59393;51.652;4.864;2023-02-26T00:19:29;7.07;;;1.30;;
71353;SDS011;59393;51.652;4.864;2023-02-26T00:21:55;6.20;;;1.10;;
71353;SDS011;59393;51.652;4.864;2023-02-26T00:24:21;4.77;;;1.63;;
71353;SDS011;59393;51.652;4.864;2023-02-26T00:26:47;3.75;;;1.02;;
71353;SDS011;59393;51.652;4.864;2023-02-26T00:29:13;7.53;;;1.40;;
71353;SDS011;59393;51.652;4.864;2023-02-26T00:31:39;7.93;;;1.40;;
71353;SDS011;59393;51.652;4.864;2023-02-26T00:34:09;4.88;;;1.20;;
71353;SDS011;59393;51.652;4.864;2023-02-26T00:36:42;13.33;;;1.80;;
71353;SDS011;59393;51.652;4.864;2023-02-26T00:41:54;11.13;;;1.98;;
71353;SDS011;59393;51.652;4.864;2023-02-26T00:44:20;8.77;;;1.38;;
71353;SDS011;59393;51.652;4.864;2023-02-26T00:49:17;6.00;;;0.80;;
71353;SDS011;59393;51.652;4.864;2023-02-26T00:54:19;4.18;;;1.25;;
71353;SDS011;59393;51.652;4.864;2023-02-26T00:56:45;3.20;;;0.85;;
71353;SDS011;59393;51.652;4.864;2023-02-26T00:59:12;6.40;;;1.10;;
71353;SDS011;59393;51.652;4.864;2023-02-26T01:01:38;7.88;;;1.55;;
71353;SDS011;59393;51.652;4.864;2023-02-26T01:04:04;10.10;;;1.15;;
71353;SDS011;59393;51.652;4.864;2023-02-26T01:06:31;7.30;;;1.10;;
71353;SDS011;59393;51.652;4.864;2023-02-26T01:11:24;8.00;;;1.13;;
71353;SDS011;59393;51.652;4.864;2023-02-26T01:13:50;5.55;;;1.20;;
71353;SDS011;59393;51.652;4.864;2023-02-26T01:16:18;4.25;;;0.95;;
71353;SDS011;59393;51.652;4.864;2023-02-26T01:18:52;10.63;;;1.08;;
71353;SDS011;59393;51.652;4.864;2023-02-26T01:21:22;2.80;;;0.80;;
71353;SDS011;59393;51.652;4.864;2023-02-26T01:23:50;6.90;;;1.00;;
71353;SDS011;59393;51.652;4.864;2023-02-26T01:28:44;3.72;;;0.80;;
71353;SDS011;59393;51.652;4.864;2023-02-26T01:31:56;4.75;;;1.10;;
71353;SDS011;59393;51.652;4.864;2023-02-26T01:34:01;4.00;;;0.80;;
71353;SDS011;59393;51.652;4.864;2023-02-26T01:36:30;2.67;;;0.68;;
71353;SDS011;59393;51.652;4.864;2023-02-26T01:39:10;4.07;;;1.13;;
71353;SDS011;59393;51.652;4.864;2023-02-26T01:41:47;2.58;;;0.60;;
71353;SDS011;59393;51.652;4.864;2023-02-26T01:47:17;6.20;;;1.17;;
71353;SDS011;59393;51.652;4.864;2023-02-26T01:49:45;4.43;;;0.85;;
71353;SDS011;59393;51.652;4.864;2023-02-26T01:54:55;3.88;;;0.80;;
71353;SDS011;59393;51.652;4.864;2023-02-26T01:57:21;4.50;;;1.00;;
71353;SDS011;59393;51.652;4.864;2023-02-26T01:59:49;6.63;;;0.93;;
71353;SDS011;59393;51.652;4.864;2023-02-26T02:02:19;4.57;;;0.68;;
71353;SDS011;59393;51.652;4.864;2023-02-26T02:04:46;3.60;;;0.95;;
71353;SDS011;59393;51.652;4.864;2023-02-26T02:07:12;2.40;;;0.77;;
71353;SDS011;59393;51.652;4.864;2023-02-26T02:09:39;4.85;;;0.68;;
71353;SDS011;59393;51.652;4.864;2023-02-26T02:17:18;6.72;;;0.95;;
71353;SDS011;59393;51.652;4.864;2023-02-26T02:28:14;0.82;;;0.35;;
71353;SDS011;59393;51.652;4.864;2023-02-26T02:33:52;7.50;;;0.95;;
71353;SDS011;59393;51.652;4.864;2023-02-26T02:36:27;7.20;;;0.68;;
71353;SDS011;59393;51.652;4.864;2023-02-26T02:38:56;2.50;;;0.53;;
71353;SDS011;59393;51.652;4.864;2023-02-26T02:41:31;1.27;;;0.45;;
71353;SDS011;59393;51.652;4.864;2023-02-26T02:43:59;3.40;;;0.70;;
71353;SDS011;59393;51.652;4.864;2023-02-26T02:46:27;2.00;;;0.55;;
71353;SDS011;59393;51.652;4.864;2023-02-26T02:49:27;0.70;;;0.30;;
71353;SDS011;59393;51.652;4.864;2023-02-26T02:56:51;4.78;;;0.68;;
71353;SDS011;59393;51.652;4.864;2023-02-26T02:59:20;5.95;;;0.50;;
71353;SDS011;59393;51.652;4.864;2023-02-26T03:01:47;2.55;;;0.55;;
71353;SDS011;59393;51.652;4.864;2023-02-26T03:04:15;2.23;;;0.40;;
71353;SDS011;59393;51.652;4.864;2023-02-26T03:06:42;2.67;;;0.45;;
71353;SDS011;59393;51.652;4.864;2023-02-26T03:09:10;4.30;;;0.45;;
71353;SDS011;59393;51.652;4.864;2023-02-26T03:11:37;6.60;;;0.65;;
71353;SDS011;59393;51.652;4.864;2023-02-26T03:14:04;5.10;;;0.52;;
71353;SDS011;59393;51.652;4.864;2023-02-26T03:16:43;2.10;;;0.50;;
71353;SDS011;59393;51.652;4.864;2023-02-26T03:22:18;9.70;;;1.65;;
71353;SDS011;59393;51.652;4.864;2023-02-26T03:24:50;10.32;;;1.00;;
71353;SDS011;59393;51.652;4.864;2023-02-26T03:27:22;1.15;;;0.50;;
71353;SDS011;59393;51.652;4.864;2023-02-26T03:29:52;4.67;;;0.57;;
71353;SDS011;59393;51.652;4.864;2023-02-26T03:32:43;4.43;;;0.70;;
71353;SDS011;59393;51.652;4.864;2023-02-26T03:35:07;1.48;;;0.40;;
71353;SDS011;59393;51.652;4.864;2023-02-26T03:40:02;6.47;;;0.43;;
71353;SDS011;59393;51.652;4.864;2023-02-26T03:42:32;1.47;;;0.40;;
71353;SDS011;59393;51.652;4.864;2023-02-26T03:45:00;4.32;;;0.50;;
71353;SDS011;59393;51.652;4.864;2023-02-26T03:47:28;1.77;;;0.30;;
71353;SDS011;59393;51.652;4.864;2023-02-26T03:49:58;5.05;;;0.50;;
71353;SDS011;59393;51.652;4.864;2023-02-26T03:52:25;6.80;;;0.68;;
71353;SDS011;59393;51.652;4.864;2023-02-26T03:54:57;1.33;;;0.47;;
71353;SDS011;59393;51.652;4.864;2023-02-26T03:57:24;7.13;;;0.60;;
71353;SDS011;59393;51.652;4.864;2023-02-26T03:59:50;4.35;;;0.40;;
71353;SDS011;59393;51.652;4.864;2023-02-26T04:02:18;1.02;;;0.20;;
71353;SDS011;59393;51.652;4.864;2023-02-26T04:04:46;5.15;;;0.98;;
71353;SDS011;59393;51.652;4.864;2023-02-26T04:07:15;1.23;;;0.27;;
71353;SDS011;59393;51.652;4.864;2023-02-26T04:09:42;10.77;;;1.15;;
71353;SDS011;59393;51.652;4.864;2023-02-26T04:12:09;5.97;;;0.85;;
71353;SDS011;59393;51.652;4.864;2023-02-26T04:14:35;2.75;;;0.47;;
71353;SDS011;59393;51.652;4.864;2023-02-26T04:17:01;6.82;;;0.82;;
71353;SDS011;59393;51.652;4.864;2023-02-26T04:19:27;0.40;;;0.20;;
71353;SDS011;59393;51.652;4.864;2023-02-26T04:21:53;6.00;;;0.45;;
71353;SDS011;59393;51.652;4.864;2023-02-26T04:24:19;2.55;;;0.32;;
71353;SDS011;59393;51.652;4.864;2023-02-26T04:26:45;3.60;;;0.40;;
71353;SDS011;59393;51.652;4.864;2023-02-26T04:29:11;0.97;;;0.40;;
71353;SDS011;59393;51.652;4.864;2023-02-26T04:31:37;0.90;;;0.22;;
71353;SDS011;59393;51.652;4.864;2023-02-26T04:34:03;2.88;;;0.47;;
71353;SDS011;59393;51.652;4.864;2023-02-26T04:36:29;4.32;;;0.30;;
71353;SDS011;59393;51.652;4.864;2023-02-26T04:38:55;10.05;;;0.60;;
71353;SDS011;59393;51.652;4.864;2023-02-26T04:41:21;4.10;;;0.30;;
71353;SDS011;59393;51.652;4.864;2023-02-26T04:43:47;0.80;;;0.20;;
71353;SDS011;59393;51.652;4.864;2023-02-26T04:46:13;2.10;;;0.47;;
71353;SDS011;59393;51.652;4.864;2023-02-26T04:48:39;3.63;;;0.30;;
71353;SDS011;59393;51.652;4.864;2023-02-26T04:51:05;0.73;;;0.13;;
71353;SDS011;59393;51.652;4.864;2023-02-26T04:53:31;5.50;;;0.50;;
71353;SDS011;59393;51.652;4.864;2023-02-26T04:55:57;2.03;;;1.05;;
71353;SDS011;59393;51.652;4.864;2023-02-26T04:58:23;5.85;;;0.40;;
71353;SDS011;59393;51.652;4.864;2023-02-26T05:00:50;1.90;;;0.20;;
71353;SDS011;59393;51.652;4.864;2023-02-26T05:03:17;9.02;;;0.70;;
71353;SDS011;59393;51.652;4.864;2023-02-26T05:05:43;1.87;;;0.40;;
71353;SDS011;59393;51.652;4.864;2023-02-26T05:08:09;5.28;;;0.50;;
71353;SDS011;59393;51.652;4.864;2023-02-26T05:10:35;2.08;;;0.30;;
71353;SDS011;59393;51.652;4.864;2023-02-26T05:13:01;0.45;;;0.20;;
71353;SDS011;59393;51.652;4.864;2023-02-26T05:15:27;5.47;;;0.38;;
71353;SDS011;59393;51.652;4.864;2023-02-26T05:17:53;0.83;;;0.17;;
71353;SDS011;59393;51.652;4.864;2023-02-26T05:20:20;4.25;;;0.47;;
71353;SDS011;59393;51.652;4.864;2023-02-26T05:22:46;1.33;;;0.28;;
71353;SDS011;59393;51.652;4.864;2023-02-26T05:25:12;2.58;;;0.50;;
71353;SDS011;59393;51.652;4.864;2023-02-26T05:27:39;0.93;;;0.30;;
71353;SDS011;59393;51.652;4.864;2023-02-26T05:30:06;3.72;;;0.43;;
71353;SDS011;59393;51.652;4.864;2023-02-26T05:32:33;0.90;;;0.35;;
71353;SDS011;59393;51.652;4.864;2023-02-26T05:34:59;1.88;;;0.40;;
71353;SDS011;59393;51.652;4.864;2023-02-26T05:37:25;4.88;;;0.57;;
71353;SDS011;59393;51.652;4.864;2023-02-26T05:39:51;7.63;;;0.40;;
71353;SDS011;59393;51.652;4.864;2023-02-26T05:42:17;4.13;;;0.40;;
71353;SDS011;59393;51.652;4.864;2023-02-26T05:44:42;2.17;;;0.40;;
71353;SDS011;59393;51.652;4.864;2023-02-26T05:47:08;1.48;;;0.50;;
71353;SDS011;59393;51.652;4.864;2023-02-26T05:49:34;1.00;;;0.20;;
71353;SDS011;59393;51.652;4.864;2023-02-26T05:52:01;3.25;;;0.40;;
71353;SDS011;59393;51.652;4.864;2023-02-26T05:54:27;7.10;;;0.43;;
71353;SDS011;59393;51.652;4.864;2023-02-26T05:56:53;5.50;;;0.73;;
71353;SDS011;59393;51.652;4.864;2023-02-26T05:59:20;1.77;;;0.30;;
71353;SDS011;59393;51.652;4.864;2023-02-26T06:01:46;10.23;;;1.10;;
71353;SDS011;59393;51.652;4.864;2023-02-26T06:04:12;11.38;;;1.05;;
71353;SDS011;59393;51.652;4.864;2023-02-26T06:06:38;3.85;;;0.60;;
71353;SDS011;59393;51.652;4.864;2023-02-26T06:09:04;6.75;;;0.65;;
71353;SDS011;59393;51.652;4.864;2023-02-26T06:11:31;0.80;;;0.30;;
71353;SDS011;59393;51.652;4.864;2023-02-26T06:13:57;2.60;;;0.32;;
71353;SDS011;59393;51.652;4.864;2023-02-26T06:16:23;2.10;;;0.30;;
71353;SDS011;59393;51.652;4.864;2023-02-26T06:18:49;3.40;;;0.40;;
71353;SDS011;59393;51.652;4.864;2023-02-26T06:21:15;3.72;;;0.40;;
71353;SDS011;59393;51.652;4.864;2023-02-26T06:23:41;2.38;;;0.65;;
71353;SDS011;59393;51.652;4.864;2023-02-26T06:26:07;7.32;;;0.60;;
71353;SDS011;59393;51.652;4.864;2023-02-26T06:28:34;1.48;;;0.38;;
71353;SDS011;59393;51.652;4.864;2023-02-26T06:31:00;2.53;;;0.50;;
71353;SDS011;59393;51.652;4.864;2023-02-26T06:33:26;0.97;;;0.20;;
71353;SDS011;59393;51.652;4.864;2023-02-26T06:35:52;1.13;;;0.38;;
71353;SDS011;59393;51.652;4.864;2023-02-26T06:38:20;4.32;;;0.90;;
71353;SDS011;59393;51.652;4.864;2023-02-26T06:40:46;1.23;;;0.35;;
71353;SDS011;59393;51.652;4.864;2023-02-26T06:43:12;0.43;;;0.13;;
71353;SDS011;59393;51.652;4.864;2023-02-26T06:45:38;4.38;;;0.50;;
71353;SDS011;59393;51.652;4.864;2023-02-26T06:48:04;1.20;;;0.32;;
71353;SDS011;59393;51.652;4.864;2023-02-26T06:50:30;2.38;;;0.40;;
71353;SDS011;59393;51.652;4.864;2023-02-26T06:52:56;6.18;;;0.40;;
71353;SDS011;59393;51.652;4.864;2023-02-26T06:55:22;2.55;;;0.70;;
71353;SDS011;59393;51.652;4.864;2023-02-26T06:57:55;2.80;;;0.50;;
71353;SDS011;59393;51.652;4.864;2023-02-26T07:00:22;0.98;;;0.30;;
71353;SDS011;59393;51.652;4.864;2023-02-26T07:02:48;5.78;;;0.73;;
71353;SDS011;59393;51.652;4.864;2023-02-26T07:05:15;5.83;;;0.50;;
71353;SDS011;59393;51.652;4.864;2023-02-26T07:07:41;0.47;;;0.22;;
71353;SDS011;59393;51.652;4.864;2023-02-26T07:10:07;8.30;;;0.68;;
71353;SDS011;59393;51.652;4.864;2023-02-26T07:12:34;3.08;;;0.50;;
71353;SDS011;59393;51.652;4.864;2023-02-26T07:15:00;1.48;;;0.35;;
71353;SDS011;59393;51.652;4.864;2023-02-26T07:17:26;0.93;;;0.30;;
71353;SDS011;59393;51.652;4.864;2023-02-26T07:19:52;8.00;;;0.60;;
71353;SDS011;59393;51.652;4.864;2023-02-26T07:22:18;1.45;;;0.73;;
71353;SDS011;59393;51.652;4.864;2023-02-26T07:24:44;0.65;;;0.20;;
71353;SDS011;59393;51.652;4.864;2023-02-26T07:27:10;3.73;;;0.70;;
71353;SDS011;59393;51.652;4.864;2023-02-26T07:29:37;3.55;;;0.70;;
71353;SDS011;59393;51.652;4.864;2023-02-26T07:32:03;6.60;;;0.47;;
71353;SDS011;59393;51.652;4.864;2023-02-26T07:34:30;0.98;;;0.28;;
71353;SDS011;59393;51.652;4.864;2023-02-26T07:36:56;2.33;;;0.70;;
71353;SDS011;59393;51.652;4.864;2023-02-26T07:39:23;9.70;;;0.63;;
71353;SDS011;59393;51.652;4.864;2023-02-26T07:41:49;0.90;;;0.38;;
71353;SDS011;59393;51.652;4.864;2023-02-26T07:44:15;5.15;;;0.52;;
71353;SDS011;59393;51.652;4.864;2023-02-26T07:46:41;0.65;;;0.20;;
71353;SDS011;59393;51.652;4.864;2023-02-26T07:49:07;1.43;;;0.37;;
71353;SDS011;59393;51.652;4.864;2023-02-26T07:51:34;4.15;;;0.40;;
71353;SDS011;59393;51.652;4.864;2023-02-26T07:54:00;1.80;;;0.17;;
71353;SDS011;59393;51.652;4.864;2023-02-26T07:56:27;7.65;;;0.82;;
71353;SDS011;59393;51.652;4.864;2023-02-26T07:58:53;4.07;;;0.30;;
71353;SDS011;59393;51.652;4.864;2023-02-26T08:01:19;2.43;;;0.30;;
71353;SDS011;59393;51.652;4.864;2023-02-26T08:03:45;1.48;;;0.45;;
71353;SDS011;59393;51.652;4.864;2023-02-26T08:06:11;3.92;;;0.40;;
71353;SDS011;59393;51.652;4.864;2023-02-26T08:08:38;2.05;;;0.47;;
71353;SDS011;59393;51.652;4.864;2023-02-26T08:11:04;4.03;;;0.60;;
71353;SDS011;59393;51.652;4.864;2023-02-26T08:13:30;12.55;;;1.08;;
71353;SDS011;59393;51.652;4.864;2023-02-26T08:15:56;1.80;;;0.50;;
71353;SDS011;59393;51.652;4.864;2023-02-26T08:18:22;5.20;;;0.93;;
71353;SDS011;59393;51.652;4.864;2023-02-26T08:20:49;5.22;;;1.20;;
71353;SDS011;59393;51.652;4.864;2023-02-26T08:23:16;4.90;;;0.70;;
71353;SDS011;59393;51.652;4.864;2023-02-26T08:25:42;3.38;;;0.60;;
71353;SDS011;59393;51.652;4.864;2023-02-26T08:28:09;7.65;;;0.85;;
71353;SDS011;59393;51.652;4.864;2023-02-26T08:30:35;2.42;;;0.63;;
71353;SDS011;59393;51.652;4.864;2023-02-26T08:33:01;2.22;;;0.30;;
71353;SDS011;59393;51.652;4.864;2023-02-26T08:35:27;4.23;;;0.67;;
71353;SDS011;59393;51.652;4.864;2023-02-26T08:37:53;1.65;;;0.50;;
71353;SDS011;59393;51.652;4.864;2023-02-26T08:40:19;5.40;;;0.73;;
71353;SDS011;59393;51.652;4.864;2023-02-26T08:42:46;8.02;;;0.40;;
71353;SDS011;59393;51.652;4.864;2023-02-26T08:45:12;3.67;;;0.70;;
71353;SDS011;59393;51.652;4.864;2023-02-26T08:47:38;2.63;;;0.30;;
71353;SDS011;59393;51.652;4.864;2023-02-26T08:50:07;5.20;;;0.47;;
71353;SDS011;59393;51.652;4.864;2023-02-26T08:52:33;1.67;;;0.30;;
71353;SDS011;59393;51.652;4.864;2023-02-26T08:54:59;1.20;;;0.20;;
71353;SDS011;59393;51.652;4.864;2023-02-26T08:57:25;2.00;;;0.43;;
71353;SDS011;59393;51.652;4.864;2023-02-26T08:59:51;2.03;;;0.43;;
71353;SDS011;59393;51.652;4.864;2023-02-26T09:02:17;1.65;;;0.45;;
71353;SDS011;59393;51.652;4.864;2023-02-26T09:04:43;4.82;;;0.90;;
71353;SDS011;59393;51.652;4.864;2023-02-26T09:07:09;2.00;;;0.52;;
71353;SDS011;59393;51.652;4.864;2023-02-26T09:09:35;5.67;;;0.80;;
71353;SDS011;59393;51.652;4.864;2023-02-26T09:12:01;1.92;;;0.30;;
71353;SDS011;59393;51.652;4.864;2023-02-26T09:14:27;4.28;;;0.30;;
71353;SDS011;59393;51.652;4.864;2023-02-26T09:16:53;0.63;;;0.20;;
71353;SDS011;59393;51.652;4.864;2023-02-26T09:19:20;1.75;;;0.50;;
71353;SDS011;59393;51.652;4.864;2023-02-26T09:21:46;2.10;;;0.40;;
71353;SDS011;59393;51.652;4.864;2023-02-26T09:24:12;1.77;;;0.32;;
71353;SDS011;59393;51.652;4.864;2023-02-26T09:26:38;2.42;;;0.65;;
71353;SDS011;59393;51.652;4.864;2023-02-26T09:29:04;1.67;;;0.30;;
71353;SDS011;59393;51.652;4.864;2023-02-26T09:31:30;2.42;;;0.47;;
71353;SDS011;59393;51.652;4.864;2023-02-26T09:33:57;4.97;;;0.60;;
71353;SDS011;59393;51.652;4.864;2023-02-26T09:36:23;1.08;;;0.30;;
71353;SDS011;59393;51.652;4.864;2023-02-26T09:38:49;1.27;;;0.20;;
71353;SDS011;59393;51.652;4.864;2023-02-26T09:41:22;1.48;;;0.28;;
71353;SDS011;59393;51.652;4.864;2023-02-26T09:46:31;4.23;;;0.30;;
71353;SDS011;59393;51.652;4.864;2023-02-26T09:51:34;0.30;;;0.20;;
71353;SDS011;59393;51.652;4.864;2023-02-26T09:54:02;6.28;;;0.52;;
71353;SDS011;59393;51.652;4.864;2023-02-26T09:56:33;2.20;;;0.35;;
71353;SDS011;59393;51.652;4.864;2023-02-26T09:59:01;1.87;;;0.30;;
71353;SDS011;59393;51.652;4.864;2023-02-26T10:01:35;3.53;;;0.52;;
71353;SDS011;59393;51.652;4.864;2023-02-26T10:04:14;2.53;;;0.50;;
71353;SDS011;59393;51.652;4.864;2023-02-26T10:09:16;3.50;;;0.63;;
71353;SDS011;59393;51.652;4.864;2023-02-26T10:14:17;4.78;;;0.40;;
71353;SDS011;59393;51.652;4.864;2023-02-26T10:16:45;1.13;;;0.30;;
71353;SDS011;59393;51.652;4.864;2023-02-26T10:19:13;0.22;;;0.10;;
71353;SDS011;59393;51.652;4.864;2023-02-26T10:21:46;1.17;;;0.30;;
71353;SDS011;59393;51.652;4.864;2023-02-26T10:24:14;0.47;;;0.20;;
71353;SDS011;59393;51.652;4.864;2023-02-26T10:26:44;1.50;;;0.40;;
71353;SDS011;59393;51.652;4.864;2023-02-26T10:31:37;3.42;;;0.25;;
71353;SDS011;59393;51.652;4.864;2023-02-26T10:34:16;4.43;;;0.63;;
71353;SDS011;59393;51.652;4.864;2023-02-26T10:36:57;2.72;;;0.30;;
71353;SDS011;59393;51.652;4.864;2023-02-26T10:41:52;2.05;;;0.20;;
71353;SDS011;59393;51.652;4.864;2023-02-26T10:44:21;0.93;;;0.28;;
71353;SDS011;59393;51.652;4.864;2023-02-26T10:46:58;3.47;;;0.40;;
71353;SDS011;59393;51.652;4.864;2023-02-26T10:51:55;3.28;;;0.50;;
71353;SDS011;59393;51.652;4.864;2023-02-26T10:57:13;1.30;;;0.75;;
71353;SDS011;59393;51.652;4.864;2023-02-26T10:59:41;2.63;;;0.40;;
71353;SDS011;59393;51.652;4.864;2023-02-26T11:02:13;2.75;;;0.30;;
71353;SDS011;59393;51.652;4.864;2023-02-26T11:04:45;2.30;;;0.65;;
71353;SDS011;59393;51.652;4.864;2023-02-26T11:07:11;1.95;;;0.30;;
71353;SDS011;59393;51.652;4.864;2023-02-26T11:09:39;1.10;;;0.40;;
71353;SDS011;59393;51.652;4.864;2023-02-26T11:14:37;1.83;;;0.28;;
71353;SDS011;59393;51.652;4.864;2023-02-26T11:17:03;6.72;;;0.52;;
71353;SDS011;59393;51.652;4.864;2023-02-26T11:19:32;0.88;;;0.20;;
71353;SDS011;59393;51.652;4.864;2023-02-26T11:22:00;1.42;;;0.30;;
71353;SDS011;59393;51.652;4.864;2023-02-26T11:24:28;0.70;;;0.20;;
71353;SDS011;59393;51.652;4.864;2023-02-26T11:26:56;0.43;;;0.10;;
71353;SDS011;59393;51.652;4.864;2023-02-26T11:29:24;1.25;;;0.35;;
71353;SDS011;59393;51.652;4.864;2023-02-26T11:31:51;1.02;;;0.30;;
71353;SDS011;59393;51.652;4.864;2023-02-26T11:34:20;1.80;;;0.35;;
71353;SDS011;59393;51.652;4.864;2023-02-26T11:36:47;2.13;;;0.40;;
71353;SDS011;59393;51.652;4.864;2023-02-26T11:39:15;2.55;;;0.32;;
71353;SDS011;59393;51.652;4.864;2023-02-26T11:41:44;2.78;;;0.55;;
71353;SDS011;59393;51.652;4.864;2023-02-26T11:44:15;3.45;;;0.57;;
71353;SDS011;59393;51.652;4.864;2023-02-26T11:46:54;0.70;;;0.25;;
71353;SDS011;59393;51.652;4.864;2023-02-26T11:49:21;0.73;;;0.30;;
71353;SDS011;59393;51.652;4.864;2023-02-26T11:51:59;1.83;;;0.30;;
71353;SDS011;59393;51.652;4.864;2023-02-26T11:54:26;0.70;;;0.22;;
71353;SDS011;59393;51.652;4.864;2023-02-26T11:56:59;1.25;;;0.25;;
71353;SDS011;59393;51.652;4.864;2023-02-26T11:59:26;1.77;;;0.30;;
71353;SDS011;59393;51.652;4.864;2023-02-26T12:01:55;2.87;;;0.50;;
71353;SDS011;59393;51.652;4.864;2023-02-26T12:04:24;1.00;;;0.30;;
71353;SDS011;59393;51.652;4.864;2023-02-26T12:06:52;0.50;;;0.30;;
71353;SDS011;59393;51.652;4.864;2023-02-26T12:09:18;2.50;;;0.50;;
71353;SDS011;59393;51.652;4.864;2023-02-26T12:22:40;1.67;;;0.35;;
71353;SDS011;59393;51.652;4.864;2023-02-26T12:30:20;0.50;;;0.20;;
71353;SDS011;59393;51.652;4.864;2023-02-26T12:35:35;2.80;;;0.60;;
71353;SDS011;59393;51.652;4.864;2023-02-26T12:43:15;2.45;;;0.35;;
71353;SDS011;59393;51.652;4.864;2023-02-26T12:52:01;2.63;;;0.40;;
71353;SDS011;59393;51.652;4.864;2023-02-26T13:12:58;3.45;;;0.68;;
71353;SDS011;59393;51.652;4.864;2023-02-26T13:20:32;0.55;;;0.20;;
71353;SDS011;59393;51.652;4.864;2023-02-26T13:23:01;3.70;;;0.57;;
71353;SDS011;59393;51.652;4.864;2023-02-26T13:25:35;1.88;;;0.38;;
71353;SDS011;59393;51.652;4.864;2023-02-26T13:28:02;5.25;;;0.50;;
71353;SDS011;59393;51.652;4.864;2023-02-26T13:30:31;2.10;;;0.57;;
71353;SDS011;59393;51.652;4.864;2023-02-26T13:32:59;1.80;;;0.30;;
71353;SDS011;59393;51.652;4.864;2023-02-26T13:35:34;1.30;;;0.30;;
71353;SDS011;59393;51.652;4.864;2023-02-26T13:38:04;2.47;;;0.45;;
71353;SDS011;59393;51.652;4.864;2023-02-26T13:40:40;0.45;;;0.20;;
71353;SDS011;59393;51.652;4.864;2023-02-26T13:45:59;1.67;;;0.47;;
71353;SDS011;59393;51.652;4.864;2023-02-26T13:51:01;0.98;;;0.30;;
71353;SDS011;59393;51.652;4.864;2023-02-26T13:58:53;0.90;;;0.40;;
71353;SDS011;59393;51.652;4.864;2023-02-26T14:01:26;3.13;;;0.53;;
71353;SDS011;59393;51.652;4.864;2023-02-26T14:04:05;1.67;;;0.45;;
71353;SDS011;59393;51.652;4.864;2023-02-26T14:06:45;1.75;;;0.40;;
71353;SDS011;59393;51.652;4.864;2023-02-26T14:22:17;0.50;;;0.17;;
71353;SDS011;59393;51.652;4.864;2023-02-26T14:24:59;2.08;;;0.30;;
71353;SDS011;59393;51.652;4.864;2023-02-26T14:30:03;4.65;;;0.55;;
71353;SDS011;59393;51.652;4.864;2023-02-26T14:34:55;1.85;;;0.40;;
71353;SDS011;59393;51.652;4.864;2023-02-26T14:37:24;4.00;;;0.50;;
71353;SDS011;59393;51.652;4.864;2023-02-26T14:42:33;1.75;;;0.50;;
71353;SDS011;59393;51.652;4.864;2023-02-26T14:45:07;2.40;;;0.68;;
71353;SDS011;59393;51.652;4.864;2023-02-26T14:47:37;3.65;;;0.32;;
71353;SDS011;59393;51.652;4.864;2023-02-26T14:50:04;1.40;;;0.40;;
71353;SDS011;59393;51.652;4.864;2023-02-26T14:52:39;1.07;;;0.30;;
71353;SDS011;59393;51.652;4.864;2023-02-26T14:58:06;0.73;;;0.40;;
71353;SDS011;59393;51.652;4.864;2023-02-26T15:06:09;1.90;;;0.40;;
71353;SDS011;59393;51.652;4.864;2023-02-26T15:08:47;2.65;;;0.30;;
71353;SDS011;59393;51.652;4.864;2023-02-26T15:14:09;1.70;;;0.23;;
71353;SDS011;59393;51.652;4.864;2023-02-26T15:19:06;0.90;;;0.20;;
71353;SDS011;59393;51.652;4.864;2023-02-26T15:24:13;2.05;;;0.70;;
71353;SDS011;59393;51.652;4.864;2023-02-26T15:26:49;1.20;;;0.38;;
71353;SDS011;59393;51.652;4.864;2023-02-26T15:29:16;0.50;;;0.30;;
71353;SDS011;59393;51.652;4.864;2023-02-26T15:31:43;0.17;;;0.17;;
71353;SDS011;59393;51.652;4.864;2023-02-26T15:34:12;1.95;;;0.50;;
71353;SDS011;59393;51.652;4.864;2023-02-26T15:36:47;2.20;;;0.60;;
71353;SDS011;59393;51.652;4.864;2023-02-26T15:39:17;1.42;;;0.30;;
71353;SDS011;59393;51.652;4.864;2023-02-26T15:41:45;0.50;;;0.20;;
71353;SDS011;59393;51.652;4.864;2023-02-26T15:44:26;1.07;;;0.30;;
71353;SDS011;59393;51.652;4.864;2023-02-26T15:46:54;2.10;;;0.40;;
71353;SDS011;59393;51.652;4.864;2023-02-26T15:49:27;2.67;;;0.40;;
71353;SDS011;59393;51.652;4.864;2023-02-26T15:51:54;1.88;;;0.60;;
71353;SDS011;59393;51.652;4.864;2023-02-26T15:54:22;3.23;;;0.70;;
71353;SDS011;59393;51.652;4.864;2023-02-26T15:56:49;1.67;;;0.25;;
71353;SDS011;59393;51.652;4.864;2023-02-26T15:59:25;1.48;;;0.30;;
71353;SDS011;59393;51.652;4.864;2023-02-26T16:01:52;3.88;;;0.50;;
71353;SDS011;59393;51.652;4.864;2023-02-26T16:04:19;1.85;;;0.50;;
71353;SDS011;59393;51.652;4.864;2023-02-26T16:06:53;1.27;;;0.23;;
71353;SDS011;59393;51.652;4.864;2023-02-26T16:09:35;2.80;;;0.93;;
71353;SDS011;59393;51.652;4.864;2023-02-26T16:14:49;1.38;;;0.50;;
71353;SDS011;59393;51.652;4.864;2023-02-26T16:17:24;1.30;;;0.30;;
71353;SDS011;59393;51.652;4.864;2023-02-26T16:19:50;1.40;;;0.40;;
71353;SDS011;59393;51.652;4.864;2023-02-26T16:22:36;1.55;;;0.30;;
71353;SDS011;59393;51.652;4.864;2023-02-26T16:25:08;3.63;;;0.45;;
71353;SDS011;59393;51.652;4.864;2023-02-26T16:27:39;3.13;;;0.60;;
71353;SDS011;59393;51.652;4.864;2023-02-26T16:30:07;1.85;;;0.30;;
71353;SDS011;59393;51.652;4.864;2023-02-26T16:32:39;1.07;;;0.20;;
71353;SDS011;59393;51.652;4.864;2023-02-26T16:35:10;0.93;;;0.30;;
71353;SDS011;59393;51.652;4.864;2023-02-26T16:37:42;1.17;;;0.30;;
71353;SDS011;59393;51.652;4.864;2023-02-26T16:40:27;5.28;;;0.60;;
71353;SDS011;59393;51.652;4.864;2023-02-26T16:45:43;2.77;;;0.77;;
71353;SDS011;59393;51.652;4.864;2023-02-26T16:48:14;1.77;;;0.60;;
71353;SDS011;59393;51.652;4.864;2023-02-26T16:50:41;4.75;;;1.15;;
71353;SDS011;59393;51.652;4.864;2023-02-26T16:53:11;5.32;;;1.23;;
71353;SDS011;59393;51.652;4.864;2023-02-26T16:55:38;7.35;;;1.52;;
71353;SDS011;59393;51.652;4.864;2023-02-26T16:58:09;3.83;;;1.23;;
71353;SDS011;59393;51.652;4.864;2023-02-26T17:00:37;3.88;;;0.73;;
71353;SDS011;59393;51.652;4.864;2023-02-26T17:03:14;2.75;;;0.80;;
71353;SDS011;59393;51.652;4.864;2023-02-26T17:05:41;4.47;;;0.60;;
71353;SDS011;59393;51.652;4.864;2023-02-26T17:08:16;1.92;;;0.60;;
71353;SDS011;59393;51.652;4.864;2023-02-26T17:10:47;2.07;;;0.50;;
71353;SDS011;59393;51.652;4.864;2023-02-26T17:13:14;1.63;;;0.40;;
71353;SDS011;59393;51.652;4.864;2023-02-26T17:15:41;5.07;;;1.00;;
71353;SDS011;59393;51.652;4.864;2023-02-26T17:18:08;5.00;;;1.17;;
71353;SDS011;59393;51.652;4.864;2023-02-26T17:20:34;2.83;;;0.82;;
71353;SDS011;59393;51.652;4.864;2023-02-26T17:23:01;5.50;;;0.70;;
71353;SDS011;59393;51.652;4.864;2023-02-26T17:25:31;1.42;;;0.50;;
71353;SDS011;59393;51.652;4.864;2023-02-26T17:27:57;5.18;;;0.57;;
71353;SDS011;59393;51.652;4.864;2023-02-26T17:30:23;2.58;;;0.55;;
71353;SDS011;59393;51.652;4.864;2023-02-26T17:32:53;1.50;;;0.40;;
71353;SDS011;59393;51.652;4.864;2023-02-26T17:35:19;1.83;;;0.50;;
71353;SDS011;59393;51.652;4.864;2023-02-26T17:37:45;2.45;;;0.70;;
71353;SDS011;59393;51.652;4.864;2023-02-26T17:40:21;1.73;;;0.50;;
71353;SDS011;59393;51.652;4.864;2023-02-26T17:42:48;4.63;;;0.90;;
71353;SDS011;59393;51.652;4.864;2023-02-26T17:45:14;2.47;;;0.70;;
71353;SDS011;59393;51.652;4.864;2023-02-26T17:47:40;1.23;;;0.40;;
71353;SDS011;59393;51.652;4.864;2023-02-26T17:50:12;2.60;;;0.63;;
71353;SDS011;59393;51.652;4.864;2023-02-26T17:52:41;2.88;;;0.63;;